createdAt,value
2023-03-27T00:00:26.079Z,0.40
2023-03-27T00:01:26.089Z,0.40
2023-03-27T00:02:26.146Z,0.40
2023-03-27T00:03:26.143Z,0.40
2023-03-27T00:04:26.046Z,0.50
2023-03-27T00:05:26.041Z,0.40
2023-03-27T00:06:26.046Z,0.40
2023-03-27T00:07:26.025Z,0.40
2023-03-27T00:08:26.021Z,0.50
2023-03-27T00:09:28.446Z,0.50
2023-03-27T00:10:25.999Z,0.50
2023-03-27T00:11:25.994Z,0.50
2023-03-27T00:12:26.000Z,0.40
2023-03-27T00:13:25.994Z,0.60
2023-03-27T00:14:26.001Z,0.40
2023-03-27T00:15:25.970Z,0.50
2023-03-27T00:16:25.963Z,0.40
2023-03-27T00:17:25.961Z,0.40
2023-03-27T00:18:25.971Z,0.50
2023-03-27T00:19:25.957Z,0.40
2023-03-27T00:20:25.939Z,0.40
2023-03-27T00:21:25.992Z,0.40
2023-03-27T00:22:25.937Z,0.50
2023-03-27T00:23:25.925Z,0.40
2023-03-27T00:24:25.914Z,0.40
2023-03-27T00:25:25.915Z,0.40
2023-03-27T00:26:25.913Z,0.50
2023-03-27T00:27:25.908Z,0.40
2023-03-27T00:28:25.887Z,0.40
2023-03-27T00:29:25.911Z,0.40
2023-03-27T00:30:25.882Z,0.40
2023-03-27T00:31:25.893Z,0.40
2023-03-27T00:32:25.894Z,0.40
2023-03-27T00:33:25.856Z,0.40
2023-03-27T00:34:25.865Z,0.40
2023-03-27T00:35:25.890Z,0.30
2023-03-27T00:36:25.836Z,0.40
2023-03-27T00:37:25.826Z,0.40
2023-03-27T00:38:25.834Z,0.40
2023-03-27T00:39:25.833Z,0.40
2023-03-27T00:40:25.811Z,0.50
2023-03-27T00:41:25.840Z,0.40
2023-03-27T00:42:25.810Z,0.40
2023-03-27T00:43:25.788Z,0.50
2023-03-27T00:44:25.805Z,0.50
2023-03-27T00:45:25.790Z,0.40
2023-03-27T00:46:25.825Z,0.50
2023-03-27T00:47:25.780Z,0.50
2023-03-27T00:48:25.756Z,0.50
2023-03-27T00:49:25.757Z,0.40
2023-03-27T00:50:25.757Z,0.50
2023-03-27T00:51:25.736Z,0.40
2023-03-27T00:52:25.729Z,0.50
2023-03-27T00:53:25.754Z,0.40
2023-03-27T00:54:25.728Z,0.50
2023-03-27T00:55:25.719Z,0.50
2023-03-27T00:56:25.693Z,0.40
2023-03-27T00:57:25.705Z,0.40
2023-03-27T00:58:25.691Z,0.50
2023-03-27T00:59:25.685Z,0.40
2023-03-27T01:00:25.701Z,0.50
2023-03-27T01:01:25.728Z,0.40
2023-03-27T01:02:25.745Z,0.50
2023-03-27T01:03:25.718Z,0.40
2023-03-27T01:04:25.657Z,0.40
2023-03-27T01:05:25.673Z,0.60
2023-03-27T01:06:25.642Z,0.50
2023-03-27T01:07:25.636Z,0.50
2023-03-27T01:08:25.627Z,0.50
2023-03-27T01:09:25.609Z,0.50
2023-03-27T01:10:25.630Z,0.50
2023-03-27T01:11:25.605Z,0.40
2023-03-27T01:12:25.613Z,0.40
2023-03-27T01:13:25.587Z,0.50
2023-03-27T01:14:25.581Z,0.50
2023-03-27T01:15:25.576Z,0.50
2023-03-27T01:16:25.595Z,0.60
2023-03-27T01:17:25.621Z,0.40
2023-03-27T01:18:25.564Z,0.50
2023-03-27T01:19:25.549Z,0.50
2023-03-27T01:20:25.545Z,0.40
2023-03-27T01:21:25.577Z,0.50
2023-03-27T01:22:25.545Z,0.50
2023-03-27T01:23:58.935Z,0.40
2023-03-27T01:24:26.516Z,0.50
2023-03-27T01:25:25.508Z,0.60
2023-03-27T01:26:36.132Z,0.50
2023-03-27T01:27:26.507Z,0.50
2023-03-27T01:28:25.501Z,0.40
2023-03-27T01:29:25.480Z,0.40
2023-03-27T01:30:25.482Z,0.50
2023-03-27T01:31:25.566Z,0.60
2023-03-27T01:32:25.489Z,0.50
2023-03-27T01:33:25.460Z,0.60
2023-03-27T01:34:25.451Z,0.50
2023-03-27T01:35:25.512Z,0.50
2023-03-27T01:36:25.453Z,0.40
2023-03-27T01:37:25.451Z,0.50
2023-03-27T01:38:25.434Z,0.50
2023-03-27T01:39:25.413Z,0.40
2023-03-27T01:40:25.419Z,0.40
2023-03-27T01:41:25.403Z,0.50
2023-03-27T01:42:25.415Z,0.50
2023-03-27T01:43:25.394Z,0.40
2023-03-27T01:44:25.384Z,0.40
2023-03-27T01:45:26.389Z,0.50
2023-03-27T01:46:25.432Z,0.40
2023-03-27T01:47:25.374Z,0.40
2023-03-27T01:48:25.367Z,0.50
2023-03-27T01:49:25.354Z,0.50
2023-03-27T01:50:25.366Z,0.40
2023-03-27T01:51:25.341Z,0.60
2023-03-27T01:52:25.337Z,0.40
2023-03-27T01:53:25.342Z,0.50
2023-03-27T01:54:25.322Z,0.40
2023-03-27T01:55:25.349Z,0.50
2023-03-27T01:56:25.309Z,0.50
2023-03-27T01:57:25.299Z,0.50
2023-03-27T01:58:25.301Z,0.40
2023-03-27T01:59:25.290Z,0.50
2023-03-27T02:00:25.447Z,0.50
2023-03-27T02:01:25.380Z,0.50
2023-03-27T02:02:25.268Z,0.40
2023-03-27T02:03:25.265Z,0.40
2023-03-27T02:04:25.266Z,0.60
2023-03-27T02:05:25.242Z,0.50
2023-03-27T02:06:25.271Z,0.50
2023-03-27T02:07:25.240Z,0.40
2023-03-27T02:08:25.235Z,0.50
2023-03-27T02:09:25.209Z,0.60
2023-03-27T02:10:26.218Z,0.40
2023-03-27T02:11:25.464Z,0.50
2023-03-27T02:12:25.221Z,0.50
2023-03-27T02:13:25.197Z,0.40
2023-03-27T02:14:25.191Z,0.40
2023-03-27T02:15:25.612Z,0.50
2023-03-27T02:16:25.243Z,0.40
2023-03-27T02:17:25.209Z,0.40
2023-03-27T02:18:25.173Z,0.60
2023-03-27T02:19:25.162Z,0.50
2023-03-27T02:20:25.155Z,0.40
2023-03-27T02:21:25.173Z,0.40
2023-03-27T02:22:38.162Z,0.40
2023-03-27T02:23:26.140Z,0.50
2023-03-27T02:24:25.131Z,0.50
2023-03-27T02:25:25.132Z,0.40
2023-03-27T02:26:25.119Z,0.50
2023-03-27T02:27:25.150Z,0.50
2023-03-27T02:28:25.118Z,0.40
2023-03-27T02:29:25.100Z,0.50
2023-03-27T02:30:25.091Z,0.50
2023-03-27T02:31:33.604Z,0.50
2023-03-27T02:32:26.121Z,0.50
2023-03-27T02:34:25.061Z,0.30
2023-03-27T02:35:25.073Z,0.50
2023-03-27T02:36:25.055Z,0.50
2023-03-27T02:37:25.046Z,0.40
2023-03-27T02:38:26.070Z,0.40
2023-03-27T02:39:25.030Z,0.50
2023-03-27T02:40:25.020Z,0.50
2023-03-27T02:41:25.025Z,0.40
2023-03-27T02:42:25.011Z,0.40
2023-03-27T02:43:25.007Z,0.50
2023-03-27T02:44:24.996Z,0.40
2023-03-27T02:45:25.029Z,0.50
2023-03-27T02:46:25.066Z,0.50
2023-03-27T02:47:25.026Z,0.40
2023-03-27T02:48:24.998Z,0.50
2023-03-27T02:49:24.961Z,0.50
2023-03-27T02:50:24.960Z,0.40
2023-03-27T02:51:24.979Z,0.40
2023-03-27T02:52:24.958Z,0.60
2023-03-27T02:53:24.941Z,0.50
2023-03-27T02:54:24.922Z,0.50
2023-03-27T02:55:25.923Z,0.60
2023-03-27T02:56:24.954Z,0.50
2023-03-27T02:57:25.344Z,0.40
2023-03-27T02:58:25.911Z,0.50
2023-03-27T02:59:24.891Z,0.50
2023-03-27T03:00:24.901Z,0.40
2023-03-27T03:01:24.919Z,0.50
2023-03-27T03:02:24.986Z,0.50
2023-03-27T03:03:24.904Z,0.40
2023-03-27T03:04:24.870Z,0.50
2023-03-27T03:05:24.858Z,0.50
2023-03-27T03:06:24.860Z,0.50
2023-03-27T03:07:24.868Z,0.40
2023-03-27T03:08:24.861Z,0.40
2023-03-27T03:09:24.845Z,0.50
2023-03-27T03:10:24.967Z,0.40
2023-03-27T03:11:24.827Z,0.50
2023-03-27T03:12:24.824Z,0.50
2023-03-27T03:13:24.799Z,0.40
2023-03-27T03:14:24.832Z,0.50
2023-03-27T03:15:24.839Z,0.40
2023-03-27T03:16:24.830Z,0.40
2023-03-27T03:17:24.819Z,0.50
2023-03-27T03:18:25.804Z,0.40
2023-03-27T03:19:24.816Z,0.50
2023-03-27T03:20:24.771Z,0.50
2023-03-27T03:21:24.764Z,0.40
2023-03-27T03:22:24.750Z,0.50
2023-03-27T03:23:24.758Z,0.40
2023-03-27T03:24:24.724Z,0.40
2023-03-27T03:25:24.723Z,0.50
2023-03-27T03:26:24.714Z,0.40
2023-03-27T03:27:24.715Z,0.60
2023-03-27T03:28:24.734Z,0.50
2023-03-27T03:29:24.710Z,0.50
2023-03-27T03:30:24.717Z,0.40
2023-03-27T03:31:24.738Z,0.50
2023-03-27T03:32:24.709Z,0.60
2023-03-27T03:33:24.690Z,0.50
2023-03-27T03:34:24.673Z,0.50
2023-03-27T03:35:24.740Z,0.40
2023-03-27T03:36:24.662Z,0.50
2023-03-27T03:37:24.649Z,0.50
2023-03-27T03:38:24.637Z,0.50
2023-03-27T03:39:24.625Z,0.50
2023-03-27T03:40:24.636Z,0.50
2023-03-27T03:41:24.651Z,0.40
2023-03-27T03:42:24.610Z,0.40
2023-03-27T03:43:24.622Z,0.50
2023-03-27T03:44:24.605Z,0.40
2023-03-27T03:45:24.617Z,0.40
2023-03-27T03:46:24.627Z,0.60
2023-03-27T03:47:24.621Z,0.50
2023-03-27T03:48:24.586Z,0.40
2023-03-27T03:49:24.569Z,0.50
2023-03-27T03:50:24.606Z,0.50
2023-03-27T03:51:24.572Z,0.40
2023-03-27T03:52:24.562Z,0.40
2023-03-27T03:53:24.549Z,0.50
2023-03-27T03:54:24.543Z,0.60
2023-03-27T03:55:24.536Z,0.50
2023-03-27T03:56:24.549Z,0.50
2023-03-27T03:57:24.518Z,0.40
2023-03-27T03:58:34.676Z,0.50
2023-03-27T03:59:25.509Z,0.40
2023-03-27T04:00:24.505Z,0.70
2023-03-27T04:01:24.512Z,0.50
2023-03-27T04:02:24.537Z,0.60
2023-03-27T04:03:24.587Z,0.40
2023-03-27T04:04:24.471Z,0.50
2023-03-27T04:05:24.462Z,0.60
2023-03-27T04:06:24.469Z,0.50
2023-03-27T04:07:24.463Z,0.40
2023-03-27T04:08:24.479Z,0.40
2023-03-27T04:09:24.436Z,0.60
2023-03-27T04:10:24.434Z,0.50
2023-03-27T04:11:25.432Z,0.50
2023-03-27T04:12:24.449Z,0.40
2023-03-27T04:13:24.411Z,0.50
2023-03-27T04:14:24.427Z,0.50
2023-03-27T04:15:24.410Z,0.50
2023-03-27T04:16:24.453Z,0.60
2023-03-27T04:17:24.469Z,0.50
2023-03-27T04:18:24.508Z,0.50
2023-03-27T04:19:24.826Z,0.50
2023-03-27T04:20:24.388Z,0.50
2023-03-27T04:21:24.355Z,0.50
2023-03-27T04:22:24.355Z,0.50
2023-03-27T04:23:24.355Z,0.40
2023-03-27T04:24:24.338Z,0.50
2023-03-27T04:25:24.456Z,0.50
2023-03-27T04:26:24.355Z,0.40
2023-03-27T04:27:24.316Z,0.50
2023-03-27T04:28:24.319Z,0.50
2023-03-27T04:29:24.308Z,0.40
2023-03-27T04:30:24.337Z,0.50
2023-03-27T04:31:24.335Z,0.50
2023-03-27T04:32:24.378Z,0.50
2023-03-27T04:33:24.283Z,0.40
2023-03-27T04:34:24.281Z,0.60
2023-03-27T04:35:24.294Z,0.40
2023-03-27T04:36:24.298Z,0.50
2023-03-27T04:37:24.338Z,0.40
2023-03-27T04:38:24.260Z,0.40
2023-03-27T04:39:24.254Z,0.50
2023-03-27T04:40:25.251Z,0.40
2023-03-27T04:41:24.275Z,0.50
2023-03-27T04:42:24.235Z,0.60
2023-03-27T04:43:24.222Z,0.50
2023-03-27T04:44:24.220Z,0.60
2023-03-27T04:45:24.229Z,0.40
2023-03-27T04:46:24.292Z,0.50
2023-03-27T04:47:24.252Z,0.60
2023-03-27T04:48:24.199Z,0.50
2023-03-27T04:49:24.190Z,0.50
2023-03-27T04:50:24.184Z,0.50
2023-03-27T04:51:24.230Z,0.50
2023-03-27T04:52:24.174Z,0.50
2023-03-27T04:53:24.175Z,0.40
2023-03-27T04:54:24.166Z,0.50
2023-03-27T04:55:24.193Z,0.60
2023-03-27T04:56:24.148Z,0.50
2023-03-27T04:57:24.156Z,0.40
2023-03-27T04:58:24.135Z,0.40
2023-03-27T04:59:24.128Z,0.50
2023-03-27T05:00:24.124Z,0.50
2023-03-27T05:01:24.134Z,0.50
2023-03-27T05:02:24.156Z,0.50
2023-03-27T05:03:24.214Z,0.50
2023-03-27T05:04:24.096Z,0.40
2023-03-27T05:05:24.094Z,0.50
2023-03-27T05:06:24.078Z,0.40
2023-03-27T05:07:24.084Z,0.50
2023-03-27T05:08:24.083Z,0.60
2023-03-27T05:09:24.071Z,0.40
2023-03-27T05:10:24.053Z,0.50
2023-03-27T05:11:24.048Z,0.50
2023-03-27T05:12:24.062Z,0.40
2023-03-27T05:13:24.028Z,0.50
2023-03-27T05:14:24.030Z,0.50
2023-03-27T05:15:24.023Z,0.50
2023-03-27T05:16:24.056Z,0.60
2023-03-27T05:17:24.083Z,0.40
2023-03-27T05:18:24.000Z,0.60
2023-03-27T05:19:25.531Z,0.50
2023-03-27T05:20:23.992Z,0.50
2023-03-27T05:21:23.977Z,0.40
2023-03-27T05:22:24.230Z,0.50
2023-03-27T05:23:24.238Z,0.50
2023-03-27T05:24:23.968Z,0.40
2023-03-27T05:25:23.962Z,0.50
2023-03-27T05:26:23.961Z,0.50
2023-03-27T05:27:23.949Z,0.50
2023-03-27T05:28:23.943Z,0.60
2023-03-27T05:29:24.017Z,0.40
2023-03-27T05:30:23.966Z,0.60
2023-03-27T05:31:23.981Z,0.50
2023-03-27T05:32:23.956Z,0.50
2023-03-27T05:33:23.895Z,0.50
2023-03-27T05:34:23.955Z,0.40
2023-03-27T05:35:24.029Z,0.60
2023-03-27T05:36:23.877Z,0.40
2023-03-27T05:37:24.939Z,0.60
2023-03-27T05:38:23.869Z,0.50
2023-03-27T05:39:24.115Z,0.50
2023-03-27T05:40:23.859Z,0.50
2023-03-27T05:41:23.852Z,0.50
2023-03-27T05:42:23.849Z,0.40
2023-03-27T05:43:23.850Z,0.50
2023-03-27T05:44:23.822Z,0.40
2023-03-27T05:45:23.857Z,0.50
2023-03-27T05:46:23.876Z,0.70
2023-03-27T05:47:23.862Z,0.50
2023-03-27T05:48:23.816Z,0.60
2023-03-27T05:49:23.805Z,0.50
2023-03-27T05:50:23.789Z,0.50
2023-03-27T05:51:23.787Z,0.50
2023-03-27T05:52:28.287Z,0.60
2023-03-27T05:53:27.968Z,0.50
2023-03-27T05:54:23.798Z,0.60
2023-03-27T05:55:24.591Z,0.50
2023-03-27T05:56:23.759Z,0.60
2023-03-27T05:57:23.739Z,0.50
2023-03-27T05:58:23.743Z,0.50
2023-03-27T05:59:23.790Z,0.70
2023-03-27T06:00:23.723Z,0.60
2023-03-27T06:01:23.718Z,0.50
2023-03-27T06:02:23.810Z,0.50
2023-03-27T06:03:23.896Z,0.80
2023-03-27T06:04:23.739Z,0.50
2023-03-27T06:05:23.696Z,0.50
2023-03-27T06:06:23.695Z,0.50
2023-03-27T06:07:23.694Z,0.60
2023-03-27T06:08:23.676Z,0.40
2023-03-27T06:09:23.680Z,0.50
2023-03-27T06:10:23.667Z,0.60
2023-03-27T06:11:23.659Z,0.50
2023-03-27T06:12:23.660Z,0.50
2023-03-27T06:13:23.668Z,0.50
2023-03-27T06:14:23.643Z,0.50
2023-03-27T06:15:23.631Z,0.70
2023-03-27T06:16:23.682Z,0.50
2023-03-27T06:17:23.735Z,0.60
2023-03-27T06:18:23.644Z,0.50
2023-03-27T06:19:23.996Z,0.60
2023-03-27T06:20:23.607Z,0.60
2023-03-27T06:21:24.496Z,0.50
2023-03-27T06:22:23.593Z,0.60
2023-03-27T06:23:23.581Z,0.50
2023-03-27T06:24:23.587Z,0.40
2023-03-27T06:25:23.578Z,0.60
2023-03-27T06:26:23.574Z,0.50
2023-03-27T06:27:23.565Z,0.50
2023-03-27T06:28:23.542Z,0.50
2023-03-27T06:29:23.553Z,0.50
2023-03-27T06:30:23.552Z,0.50
2023-03-27T06:31:23.603Z,0.70
2023-03-27T06:32:24.128Z,0.50
2023-03-27T06:33:23.512Z,0.80
2023-03-27T06:34:23.507Z,0.50
2023-03-27T06:35:24.501Z,0.60
2023-03-27T06:36:23.531Z,0.40
2023-03-27T06:37:23.495Z,0.50
2023-03-27T06:38:23.482Z,0.60
2023-03-27T06:39:23.478Z,0.50
2023-03-27T06:40:23.479Z,0.50
2023-03-27T06:41:23.461Z,0.60
2023-03-27T06:42:23.489Z,0.40
2023-03-27T06:43:23.458Z,0.50
2023-03-27T06:44:23.443Z,0.70
2023-03-27T06:45:23.446Z,0.50
2023-03-27T06:46:27.563Z,0.70
2023-03-27T06:47:25.466Z,0.50
2023-03-27T06:48:23.479Z,0.50
2023-03-27T06:49:23.411Z,0.50
2023-03-27T06:50:23.412Z,0.40
2023-03-27T06:51:23.397Z,0.50
2023-03-27T06:52:23.423Z,0.60
2023-03-27T06:53:27.669Z,0.50
2023-03-27T06:54:25.377Z,0.50
2023-03-27T06:55:23.393Z,0.60
2023-03-27T06:56:23.391Z,0.60
2023-03-27T06:57:23.387Z,0.50
2023-03-27T06:58:23.420Z,0.50
2023-03-27T06:59:23.352Z,0.60
2023-03-27T07:00:23.356Z,0.60
2023-03-27T07:01:23.364Z,0.50
2023-03-27T07:02:23.342Z,0.50
2023-03-27T07:03:23.377Z,0.50
2023-03-27T07:04:23.323Z,0.50
2023-03-27T07:05:23.409Z,0.50
2023-03-27T07:06:23.299Z,0.50
2023-03-27T07:07:23.311Z,0.40
2023-03-27T07:08:25.179Z,0.40
2023-03-27T07:09:24.280Z,0.50
2023-03-27T07:10:23.271Z,0.50
2023-03-27T07:11:23.271Z,0.40
2023-03-27T07:12:23.253Z,0.40
2023-03-27T07:13:24.268Z,0.60
2023-03-27T07:14:23.238Z,0.50
2023-03-27T07:15:23.919Z,0.50
2023-03-27T07:16:23.291Z,0.50
2023-03-27T07:17:23.235Z,0.40
2023-03-27T07:18:23.272Z,0.60
2023-03-27T07:19:23.236Z,0.40
2023-03-27T07:20:23.210Z,0.30
2023-03-27T07:21:23.230Z,0.30
2023-03-27T07:22:23.185Z,0.40
2023-03-27T07:23:24.183Z,0.40
2023-03-27T07:24:23.180Z,0.30
2023-03-27T07:25:23.175Z,0.50
2023-03-27T07:26:23.407Z,0.40
2023-03-27T07:27:23.156Z,0.40
2023-03-27T07:28:23.143Z,0.30
2023-03-27T07:29:23.151Z,0.20
2023-03-27T07:30:23.150Z,0.30
2023-03-27T07:31:35.162Z,0.50
2023-03-27T07:32:36.329Z,0.50
2023-03-27T07:33:25.233Z,0.30
2023-03-27T07:34:23.121Z,0.40
2023-03-27T07:35:23.138Z,0.30
2023-03-27T07:36:23.105Z,0.30
2023-03-27T07:37:23.099Z,0.30
2023-03-27T07:38:23.094Z,0.40
2023-03-27T07:39:23.082Z,0.30
2023-03-27T07:40:33.047Z,0.40
2023-03-27T07:41:25.128Z,0.30
2023-03-27T07:42:23.065Z,0.30
2023-03-27T07:43:23.057Z,0.50
2023-03-27T07:44:23.041Z,0.50
2023-03-27T07:45:23.057Z,0.50
2023-03-27T07:46:23.116Z,0.40
2023-03-27T07:47:23.071Z,0.40
2023-03-27T07:48:23.028Z,0.50
2023-03-27T07:49:39.460Z,0.60
2023-03-27T07:50:24.034Z,0.50
2023-03-27T07:51:23.033Z,0.50
2023-03-27T07:52:22.997Z,0.40
2023-03-27T07:53:32.878Z,0.30
2023-03-27T07:54:23.987Z,0.20
2023-03-27T07:55:22.996Z,0.30
2023-03-27T07:56:22.965Z,0.40
2023-03-27T07:57:23.100Z,0.40
2023-03-27T07:58:23.177Z,0.40
2023-03-27T07:59:22.953Z,0.30
2023-03-27T08:00:23.039Z,0.30
2023-03-27T08:01:22.939Z,0.40
2023-03-27T08:02:22.948Z,0.40
2023-03-27T08:03:23.017Z,0.30
2023-03-27T08:04:22.983Z,0.40
2023-03-27T08:05:22.952Z,0.40
2023-03-27T08:06:22.899Z,0.30
2023-03-27T08:07:22.906Z,0.30
2023-03-27T08:08:22.910Z,0.20
2023-03-27T08:09:22.887Z,0.30
2023-03-27T08:10:22.929Z,0.20
2023-03-27T08:11:30.234Z,0.30
2023-03-27T08:12:24.856Z,0.30
2023-03-27T08:13:22.864Z,0.40
2023-03-27T08:14:22.840Z,0.30
2023-03-27T08:15:22.844Z,0.30
2023-03-27T08:16:22.966Z,0.30
2023-03-27T08:17:22.843Z,0.20
2023-03-27T08:18:22.851Z,0.30
2023-03-27T08:19:22.810Z,0.40
2023-03-27T08:20:22.853Z,0.40
2023-03-27T08:21:22.794Z,0.30
2023-03-27T08:22:22.822Z,0.40
2023-03-27T08:23:22.787Z,0.20
2023-03-27T08:24:22.782Z,0.30
2023-03-27T08:25:23.034Z,0.30
2023-03-27T08:26:22.765Z,0.30
2023-03-27T08:27:22.771Z,0.30
2023-03-27T08:28:22.767Z,0.30
2023-03-27T08:29:22.736Z,0.20
2023-03-27T08:30:22.729Z,0.30
2023-03-27T08:31:22.742Z,0.30
2023-03-27T08:32:22.736Z,0.30
2023-03-27T08:33:22.750Z,0.30
2023-03-27T08:34:22.709Z,0.30
2023-03-27T08:35:22.737Z,0.40
2023-03-27T08:36:22.710Z,0.40
2023-03-27T08:37:22.713Z,0.30
2023-03-27T08:38:26.881Z,0.30
2023-03-27T08:39:23.914Z,0.30
2023-03-27T08:40:22.685Z,0.20
2023-03-27T08:41:22.662Z,0.30
2023-03-27T08:42:22.655Z,0.30
2023-03-27T08:43:22.671Z,0.40
2023-03-27T08:44:22.635Z,0.30
2023-03-27T08:45:22.699Z,0.30
2023-03-27T08:46:22.662Z,0.20
2023-03-27T08:47:22.666Z,0.40
2023-03-27T08:48:22.619Z,0.20
2023-03-27T08:49:22.636Z,0.20
2023-03-27T08:50:22.622Z,0.30
2023-03-27T08:51:22.702Z,0.20
2023-03-27T08:52:22.586Z,0.30
2023-03-27T08:53:22.601Z,0.20
2023-03-27T08:54:22.828Z,0.30
2023-03-27T08:55:22.574Z,0.20
2023-03-27T08:56:22.564Z,0.20
2023-03-27T08:57:22.555Z,0.30
2023-03-27T08:58:22.575Z,0.40
2023-03-27T08:59:22.550Z,0.40
2023-03-27T09:00:22.572Z,0.30
2023-03-27T09:01:22.562Z,0.40
2023-03-27T09:02:22.550Z,0.30
2023-03-27T09:03:22.607Z,0.30
2023-03-27T09:04:22.535Z,0.30
2023-03-27T09:05:22.539Z,0.20
2023-03-27T09:06:22.499Z,0.20
2023-03-27T09:07:22.496Z,0.20
2023-03-27T09:08:22.499Z,0.30
2023-03-27T09:09:22.473Z,0.20
2023-03-27T09:10:22.483Z,0.10
2023-03-27T09:11:22.466Z,0.20
2023-03-27T09:12:22.456Z,0.30
2023-03-27T09:13:23.443Z,0.30
2023-03-27T09:14:22.445Z,0.20
2023-03-27T09:15:22.477Z,0.20
2023-03-27T09:16:22.479Z,0.20
2023-03-27T09:17:22.414Z,0.20
2023-03-27T09:18:22.425Z,0.10
2023-03-27T09:19:22.413Z,0.10
2023-03-27T09:20:22.416Z,0.10
2023-03-27T09:21:22.396Z,0.20
2023-03-27T09:22:22.401Z,0.20
2023-03-27T09:23:22.380Z,0.20
2023-03-27T09:24:22.391Z,0.30
2023-03-27T09:25:22.387Z,0.40
2023-03-27T09:26:22.370Z,0.30
2023-03-27T09:27:22.347Z,0.30
2023-03-27T09:28:22.344Z,0.30
2023-03-27T09:29:22.348Z,0.30
2023-03-27T09:30:22.354Z,0.20
2023-03-27T09:31:22.349Z,0.10
2023-03-27T09:32:22.329Z,0.30
2023-03-27T09:33:22.318Z,0.30
2023-03-27T09:34:22.299Z,0.20
2023-03-27T09:35:22.342Z,0.20
2023-03-27T09:36:22.299Z,0.10
2023-03-27T09:37:22.339Z,0.30
2023-03-27T09:38:22.279Z,0.20
2023-03-27T09:39:22.295Z,0.20
2023-03-27T09:40:22.269Z,0.20
2023-03-27T09:41:22.257Z,0.10
2023-03-27T09:42:22.274Z,0.20
2023-03-27T09:43:24.366Z,0.30
2023-03-27T09:44:23.233Z,0.20
2023-03-27T09:45:22.230Z,0.20
2023-03-27T09:46:22.233Z,0.30
2023-03-27T09:47:22.238Z,0.20
2023-03-27T09:48:22.208Z,0.30
2023-03-27T09:49:22.198Z,0.40
2023-03-27T09:50:22.212Z,0.50
2023-03-27T09:51:22.200Z,0.30
2023-03-27T09:52:22.175Z,0.50
2023-03-27T09:53:22.197Z,0.40
2023-03-27T09:54:22.182Z,0.50
2023-03-27T09:55:22.166Z,0.40
2023-03-27T09:56:22.163Z,0.40
2023-03-27T09:57:22.188Z,0.20
2023-03-27T09:58:22.184Z,0.30
2023-03-27T09:59:22.166Z,0.20
2023-03-27T10:00:22.138Z,0.20
2023-03-27T10:01:22.154Z,0.30
2023-03-27T10:02:22.128Z,0.20
2023-03-27T10:03:22.228Z,0.30
2023-03-27T10:04:22.123Z,0.30
2023-03-27T10:05:22.116Z,0.20
2023-03-27T10:06:22.092Z,0.30
2023-03-27T10:07:22.084Z,0.20
2023-03-27T10:08:22.074Z,0.30
2023-03-27T10:09:22.059Z,0.30
2023-03-27T10:10:22.076Z,0.20
2023-03-27T10:11:22.081Z,0.30
2023-03-27T10:12:22.060Z,0.30
2023-03-27T10:13:22.042Z,0.30
2023-03-27T10:14:22.045Z,0.30
2023-03-27T10:15:22.058Z,0.30
2023-03-27T10:16:22.043Z,0.20
2023-03-27T10:17:22.023Z,0.40
2023-03-27T10:18:22.007Z,0.50
2023-03-27T10:19:22.002Z,0.40
2023-03-27T10:20:22.049Z,0.40
2023-03-27T10:21:22.000Z,0.50
2023-03-27T10:22:21.980Z,0.50
2023-03-27T10:23:22.003Z,0.30
2023-03-27T10:24:21.972Z,0.40
2023-03-27T10:25:21.961Z,0.40
2023-03-27T10:26:21.982Z,0.40
2023-03-27T10:27:22.074Z,0.30
2023-03-27T10:28:21.939Z,0.30
2023-03-27T10:29:21.931Z,0.30
2023-03-27T10:30:21.922Z,0.30
2023-03-27T10:31:21.967Z,0.30
2023-03-27T10:32:21.913Z,0.10
2023-03-27T10:33:22.021Z,0.20
2023-03-27T10:34:21.906Z,0.10
2023-03-27T10:35:21.905Z,0.10
2023-03-27T10:36:21.934Z,0.10
2023-03-27T10:37:21.874Z,0.10
2023-03-27T10:38:21.937Z,0.10
2023-03-27T10:39:21.863Z,0.10
2023-03-27T10:40:21.879Z,0.10
2023-03-27T10:41:28.740Z,0.40
2023-03-27T10:42:22.856Z,0.30
2023-03-27T10:43:21.833Z,0.40
2023-03-27T10:44:21.827Z,0.30
2023-03-27T10:45:21.820Z,0.40
2023-03-27T10:46:21.920Z,0.40
2023-03-27T10:47:21.840Z,0.40
2023-03-27T10:48:21.806Z,0.50
2023-03-27T10:49:21.802Z,0.40
2023-03-27T10:50:21.820Z,0.40
2023-03-27T10:51:21.776Z,0.30
2023-03-27T10:52:21.807Z,0.20
2023-03-27T10:53:21.858Z,0.10
2023-03-27T10:54:21.847Z,0.20
2023-03-27T10:55:21.752Z,0.10
2023-03-27T10:56:21.747Z,0.10
2023-03-27T10:57:21.919Z,0.10
2023-03-27T10:58:21.738Z,0.10
2023-03-27T10:59:31.153Z,0.10
2023-03-27T11:00:23.716Z,0.20
2023-03-27T11:01:21.768Z,0.20
2023-03-27T11:02:21.735Z,0.30
2023-03-27T11:03:21.727Z,0.40
2023-03-27T11:04:21.756Z,0.30
2023-03-27T11:05:21.862Z,0.40
2023-03-27T11:06:21.671Z,0.40
2023-03-27T11:07:21.680Z,0.40
2023-03-27T11:08:21.675Z,0.40
2023-03-27T11:09:21.676Z,0.40
2023-03-27T11:10:21.712Z,0.40
2023-03-27T11:11:21.647Z,0.10
2023-03-27T11:12:21.643Z,0.30
2023-03-27T11:13:21.651Z,0.30
2023-03-27T11:14:21.621Z,0.10
2023-03-27T11:15:21.616Z,0.40
2023-03-27T11:16:21.679Z,0.30
2023-03-27T11:17:21.617Z,0.40
2023-03-27T11:18:21.598Z,0.30
2023-03-27T11:19:21.592Z,0.30
2023-03-27T11:20:21.591Z,0.20
2023-03-27T11:21:21.590Z,0.40
2023-03-27T11:22:21.577Z,0.30
2023-03-27T11:23:21.575Z,0.20
2023-03-27T11:24:21.563Z,0.20
2023-03-27T11:25:21.562Z,0.20
2023-03-27T11:26:21.576Z,0.40
2023-03-27T11:27:21.535Z,0.40
2023-03-27T11:28:21.533Z,0.40
2023-03-27T11:29:21.526Z,0.40
2023-03-27T11:30:21.511Z,0.30
2023-03-27T11:31:21.684Z,0.40
2023-03-27T11:32:21.560Z,0.40
2023-03-27T11:33:21.491Z,0.40
2023-03-27T11:34:28.486Z,0.40
2023-03-27T11:35:22.498Z,0.30
2023-03-27T11:36:21.474Z,0.20
2023-03-27T11:37:21.482Z,0.30
2023-03-27T11:38:21.467Z,0.20
2023-03-27T11:39:21.464Z,0.20
2023-03-27T11:40:21.468Z,0.10
2023-03-27T11:41:21.462Z,0.10
2023-03-27T11:42:21.448Z,0.10
2023-03-27T11:43:21.429Z,0.10
2023-03-27T11:44:21.434Z,0.10
2023-03-27T11:45:21.449Z,0.10
2023-03-27T11:46:21.444Z,0.10
2023-03-27T11:47:21.410Z,0.10
2023-03-27T11:48:21.415Z,0.20
2023-03-27T11:49:21.401Z,0.20
2023-03-27T11:50:21.419Z,0.10
2023-03-27T11:51:21.388Z,0.10
2023-03-27T11:52:21.386Z,0.20
2023-03-27T11:53:21.395Z,0.20
2023-03-27T11:54:21.386Z,0.20
2023-03-27T11:55:21.371Z,0.20
2023-03-27T11:56:21.361Z,0.20
2023-03-27T11:57:21.406Z,0.20
2023-03-27T11:58:21.344Z,0.20
2023-03-27T11:59:21.332Z,0.20
2023-03-27T12:00:21.331Z,0.10
2023-03-27T12:01:21.358Z,0.10
2023-03-27T12:02:21.400Z,0.10
2023-03-27T12:03:21.370Z,0.10
2023-03-27T12:04:21.351Z,0.10
2023-03-27T12:05:21.305Z,0.10
2023-03-27T12:06:21.279Z,0.10
2023-03-27T12:07:33.980Z,0.10
2023-03-27T12:08:23.278Z,0.10
2023-03-27T12:09:21.991Z,0.10
2023-03-27T12:10:27.400Z,0.10
2023-03-27T12:11:23.259Z,0.10
2023-03-27T12:12:21.261Z,0.20
2023-03-27T12:13:24.296Z,0.10
2023-03-27T12:14:23.941Z,0.10
2023-03-27T12:15:23.227Z,0.10
2023-03-27T12:16:21.272Z,0.20
2023-03-27T12:17:21.216Z,0.10
2023-03-27T12:18:23.945Z,0.20
2023-03-27T12:20:23.200Z,0.10
2023-03-27T12:21:21.182Z,0.20
2023-03-27T12:22:24.425Z,0.20
2023-03-27T12:23:22.186Z,0.10
2023-03-27T12:24:21.200Z,0.10
2023-03-27T12:25:21.164Z,0.10
2023-03-27T12:26:21.162Z,0.10
2023-03-27T12:27:21.144Z,0.10
2023-03-27T12:28:22.429Z,0.10
2023-03-27T12:29:23.143Z,0.10
2023-03-27T12:30:21.128Z,0.10
2023-03-27T12:31:21.139Z,0.00
2023-03-27T12:32:21.134Z,0.10
2023-03-27T12:33:21.154Z,0.10
2023-03-27T12:34:21.104Z,0.10
2023-03-27T12:35:21.724Z,0.10
2023-03-27T12:36:21.090Z,0.10
2023-03-27T12:37:21.104Z,0.10
2023-03-27T12:38:21.068Z,0.20
2023-03-27T12:39:21.067Z,0.10
2023-03-27T12:40:21.074Z,0.10
2023-03-27T12:41:21.052Z,0.10
2023-03-27T12:42:21.045Z,0.10
2023-03-27T12:43:21.041Z,0.20
2023-03-27T12:44:21.031Z,0.10
2023-03-27T12:45:21.043Z,0.10
2023-03-27T12:46:21.050Z,0.10
2023-03-27T12:47:21.012Z,0.10
2023-03-27T12:48:21.002Z,0.10
2023-03-27T12:49:21.036Z,0.20
2023-03-27T12:50:21.008Z,0.20
2023-03-27T12:51:20.988Z,0.10
2023-03-27T12:52:20.990Z,0.10
2023-03-27T12:53:20.966Z,0.20
2023-03-27T12:54:20.969Z,0.20
2023-03-27T12:55:20.961Z,0.20
2023-03-27T12:56:20.984Z,0.20
2023-03-27T12:57:21.209Z,0.20
2023-03-27T12:58:21.102Z,0.20
2023-03-27T12:59:20.945Z,0.10
2023-03-27T13:00:20.924Z,0.10
2023-03-27T13:01:20.938Z,0.20
2023-03-27T13:02:20.973Z,0.10
2023-03-27T13:03:21.030Z,0.30
2023-03-27T13:04:20.904Z,0.20
2023-03-27T13:05:27.302Z,0.20
2023-03-27T13:06:22.898Z,0.20
2023-03-27T13:07:20.895Z,0.10
2023-03-27T13:08:20.880Z,0.10
2023-03-27T13:09:20.880Z,0.20
2023-03-27T13:10:20.855Z,0.10
2023-03-27T13:11:20.863Z,0.20
2023-03-27T13:12:20.841Z,0.20
2023-03-27T13:13:20.838Z,0.20
2023-03-27T13:14:20.851Z,0.20
2023-03-27T13:15:20.858Z,0.20
2023-03-27T13:16:20.842Z,0.20
2023-03-27T13:17:20.828Z,0.20
2023-03-27T13:18:20.829Z,0.20
2023-03-27T13:19:20.805Z,0.30
2023-03-27T13:20:20.801Z,0.20